AirNav   Air Wisconsin Up To $57,000 Bonus
 
 1555 users online  

00AL Epps Airpark
Harvest, Alabama, USA

GOING TO HARVEST?


FAA INFORMATION EFFECTIVE 16 JUNE 2022

Location

FAA Identifier: 00AL
Lat/Long: 34-51-53.3170N 086-46-12.9990W
34-51.888617N 086-46.216650W
34.8648103,-86.7702775
(estimated)
Elevation: 820 ft. / 250 m (estimated)
Variation: 00W (1985)
From city: 1 mile NW of HARVEST, AL
Time zone: UTC -5 (UTC -6 during Standard Time)
Zip code: 35749

Airport Operations

Airport use: Private use. Permission required prior to landing
Activation date: 10/1964
Control tower: no
ARTCC: MEMPHIS CENTER
FSS: ANNISTON FLIGHT SERVICE STATION
Attendance: UNATNDD
Wind indicator: yes
Segmented circle: no

Airport Communications

WX AWOS-3PT at MDQ (10 nm E): 120.000 (256-829-1242)
WX ASOS at HSV (14 nm S): 121.25 (256-772-8074)
WX ASOS at DCU (15 nm SW): 118.375 (256-350-4270)
WX AWOS-3 at FYM (15 nm NE): 135.275 (931-433-5916)

Airport Services

Airframe service: NONE
Powerplant service: NONE

Runway Information

Runway 1/19

Dimensions: 2100 x 90 ft. / 640 x 27 m
Surface: turf
RUNWAY 1  RUNWAY 19
Traffic pattern: leftleft

Airport Ownership and Management from official FAA records

Ownership: Privately-owned
Owner: GEORGE F. EPPS
410 PEPPERWOOD CIR SW, P.O. BOX 356
HUNTSVILLE, AL 35801-6499
Phone 256-837-2369
Manager: GEORGE F. EPPS
410 PEPPERWOOD CIR SW, P.O. BOX 356
HUNTSVILLE, AL 35801-6499
Phone 256-837-2369

Airport Operational Statistics

Aircraft based on the field: 7
Single engine airplanes: 7
    

Additional Remarks

FOR CD CTC HUNTSVILLE APCH AT 256-542-2070. WHEN APCH CLSD CTC MEMPHIS ARTCC AT 901-368-8453/8449.

Instrument Procedures

There are no published instrument procedures at 00AL.

Some nearby airports with instrument procedures:

KMDQ - Huntsville Executive Airport / Tom Sharp Jr Field (10 nm E)
KHUA - Redstone Army Airfield (12 nm S)
KHSV - Huntsville International Airport-Carl T Jones Field (14 nm S)
KDCU - Pryor Field Regional Airport (15 nm SW)
KFYM - Fayetteville Municipal Airport (15 nm NE)
 
Loc | Ops | Rwys | IFR | FBO | Links
Com | Nav | Svcs | Stats | Notes
Area around 00AL (Epps Airpark)
 
Road maps at: MapQuest Bing Google
 
Aerial photo
No photo
 
Sectional chart

 
Airport distance calculator
Flying to Epps Airpark? Find the distance to fly.

From to 00AL

Sunrise and sunset
Times for 30-Jun-2022
 Local
(UTC-5)
 Zulu
(UTC)
Morning civil twilight05:0810:08
Sunrise05:3810:38
Sunset20:0401:04
Evening civil twilight20:3301:33

Current date and time
Zulu (UTC)  30-Jun-2022 18:01:45
Local (UTC-5)  30-Jun-2022 13:01:45
 
METAR
KMDQ 
11nm E 
301735Z AUTO 12008KT 10SM SCT039 SCT044 31/20 A3018 RMK A02 T03100203
KHUA 
12nm S 
301758Z AUTO 12008KT 10SM FEW040 31/21 A3015 RMK AO2 SLP203 T03140207 10314 20237 57016
KHSV 
13nm S 
301753Z 16007G14KT 10SM FEW038 SCT250 32/20 A3016 RMK AO2 SLP203 T03170200 10322 20244 58016
KFYM 
15nm NE 
301800Z AUTO 20009KT 10SM SCT036 30/22 A3018 RMK A01
KDCU 
16nm SW 
301753Z AUTO VRB05KT 10SM SCT043 31/20 A3016 RMK AO2 SLP204 T03060200 10317 20228 58016
TAF
KHUA 
12nm S 
301200Z 3012/0118 VRB06KT 4800 BR SCT014 QNH3017INS BECMG 3017/3018 VRB06KT 9000 -SHRA SCT029 QNH3009INS TEMPO 3017/3023 VRB25G35KT 9000 -TSRA SCT029CB BKN045 OVC060 BECMG 3023/3024 VRB06KT 9999 NSW FEW035 QNH3008INS BECMG 0101/0102 VRB06KT 8000 BR SCT020 QNH3007INS BECMG 0116/0117 VRB06KT 8000 -SHRA SCT028 QNH3005INS TEMPO 0117/0118 24020G30KT 9000 -TSRA FEW035CB FEW050 BKN075 TX29/3018Z TN20/0109Z
KHSV 
13nm S 
301131Z 3012/0112 12004KT P6SM SCT250 FM301700 16006KT P6SM SCT050 PROB30 3021/0101 6SM -TSRA BR BKN040CB FM010100 14003KT P6SM FEW040 SCT250
NOTAMs
Click for the latest NOTAMs
NOTAMs are issued by the DoD/FAA and will open in a separate window not controlled by AirNav.

 

 
 

Would you like to see your business listed on this page?

 If your business provides an interesting product or service to pilots, flight crews, aircraft, or users of the Epps Airpark, you should consider listing it here.  To start the listing process, click on the button below
 
Add a business
 

Other Pages about Epps Airpark

Update a link
 
Copyright © AirNav, LLC. All rights reserved. Privacy Policy  Contact